Time;durP1;ratioP1;P1;durP2;ratioP2;P2;SDS_P1;SDS_P2;PMS_P1;PMS_P2;Temp;Humidity;BMP_temperature;BMP_pressure;BME280_temperature;BME280_humidity;BME280_pressure;Samples;Min_cycle;Max_cycle;Signal;HPM_P1;HPM_P2
2021/10/18 00:18:15;;;;;;;7.00;5.17;;;;;;;;;;4859639;27;19985;-60
2021/10/18 00:20:41;;;;;;;8.98;5.30;;;;;;;;;;4349584;32;20163;-59
2021/10/18 00:23:09;;;;;;;6.57;4.57;;;;;;;;;;4347645;33;20193;-60
2021/10/18 00:25:35;;;;;;;6.47;5.15;;;;;;;;;;4347806;33;20201;-59
2021/10/18 00:28:01;;;;;;;8.25;4.85;;;;;;;;;;4347706;33;20110;-59
2021/10/18 00:30:27;;;;;;;9.35;5.03;;;;;;;;;;4347834;33;20102;-59
2021/10/18 00:32:53;;;;;;;9.20;5.62;;;;;;;;;;4348114;33;20141;-60
2021/10/18 00:35:18;;;;;;;8.13;5.03;;;;;;;;;;4347886;33;20114;-60
2021/10/18 00:37:45;;;;;;;9.15;4.28;;;;;;;;;;4333882;33;20525;-60
2021/10/18 00:40:11;;;;;;;6.10;4.80;;;;;;;;;;4347074;33;20189;-59
2021/10/18 00:42:37;;;;;;;8.82;4.62;;;;;;;;;;4347612;33;20140;-60
2021/10/18 00:45:04;;;;;;;9.57;3.97;;;;;;;;;;4347461;33;20122;-60
2021/10/18 00:47:30;;;;;;;7.10;4.47;;;;;;;;;;4347663;33;20197;-60
2021/10/18 00:49:56;;;;;;;7.55;4.12;;;;;;;;;;4347477;33;20563;-60
2021/10/18 00:52:21;;;;;;;11.00;4.80;;;;;;;;;;4347823;33;20114;-60
2021/10/18 00:54:47;;;;;;;5.07;4.18;;;;;;;;;;4333960;33;20106;-60
2021/10/18 00:57:16;;;;;;;6.85;3.70;;;;;;;;;;4321634;33;20136;-60
2021/10/18 00:59:43;;;;;;;5.05;3.10;;;;;;;;;;4347463;33;20582;-60
2021/10/18 01:02:09;;;;;;;5.55;3.35;;;;;;;;;;4333846;33;20117;-59
2021/10/18 01:04:35;;;;;;;6.50;3.05;;;;;;;;;;4333716;33;20544;-60
2021/10/18 01:07:01;;;;;;;7.80;3.40;;;;;;;;;;4347620;33;20107;-59
2021/10/18 01:09:26;;;;;;;5.30;3.50;;;;;;;;;;4333747;33;20117;-60
2021/10/18 01:11:52;;;;;;;5.35;3.17;;;;;;;;;;4333667;33;20129;-60
2021/10/18 01:14:18;;;;;;;7.05;3.83;;;;;;;;;;4347275;33;20095;-59
2021/10/18 01:16:44;;;;;;;4.50;3.85;;;;;;;;;;4347504;33;20146;-60
2021/10/18 01:19:11;;;;;;;6.75;3.92;;;;;;;;;;4347035;33;20172;-59
2021/10/18 01:21:38;;;;;;;7.35;4.00;;;;;;;;;;4347169;33;20090;-60
2021/10/18 01:24:04;;;;;;;8.23;3.87;;;;;;;;;;4347399;32;20110;-60
2021/10/18 01:26:29;;;;;;;4.97;3.83;;;;;;;;;;4347165;33;20129;-60
2021/10/18 01:28:55;;;;;;;7.10;4.12;;;;;;;;;;4347161;32;20212;-60
2021/10/18 01:31:21;;;;;;;7.62;4.00;;;;;;;;;;4347145;33;20228;-60
2021/10/18 01:33:47;;;;;;;7.65;4.15;;;;;;;;;;4347119;32;20138;-60
2021/10/18 01:36:13;;;;;;;5.87;4.00;;;;;;;;;;4333440;33;20107;-60
2021/10/18 01:38:39;;;;;;;6.32;4.07;;;;;;;;;;4347233;32;20110;-60
2021/10/18 01:41:05;;;;;;;5.30;3.97;;;;;;;;;;4346948;33;20103;-60
2021/10/18 01:43:31;;;;;;;9.35;4.12;;;;;;;;;;4347039;32;20463;-60
2021/10/18 01:45:56;;;;;;;5.43;3.40;;;;;;;;;;4346866;33;20197;-59
2021/10/18 01:48:22;;;;;;;6.35;4.25;;;;;;;;;;4346822;32;20245;-60
2021/10/18 01:50:48;;;;;;;6.93;4.18;;;;;;;;;;4346823;33;20117;-60
2021/10/18 01:53:14;;;;;;;6.00;3.58;;;;;;;;;;4348533;32;20107;-60
2021/10/18 01:55:40;;;;;;;8.10;3.78;;;;;;;;;;4349094;33;20133;-61
2021/10/18 01:58:07;;;;;;;5.85;3.90;;;;;;;;;;4349126;33;20200;-61
2021/10/18 02:00:33;;;;;;;7.70;4.03;;;;;;;;;;4335600;33;20110;-60
2021/10/18 02:02:58;;;;;;;8.35;4.43;;;;;;;;;;4349413;33;20113;-61
2021/10/18 02:05:24;;;;;;;7.62;4.40;;;;;;;;;;4349242;33;20141;-61
2021/10/18 02:07:50;;;;;;;8.82;4.00;;;;;;;;;;4348955;33;20121;-61
2021/10/18 02:10:16;;;;;;;9.75;3.97;;;;;;;;;;4348927;33;20125;-61
2021/10/18 02:12:42;;;;;;;8.75;4.60;;;;;;;;;;4349006;33;20103;-60
2021/10/18 02:15:08;;;;;;;6.93;4.20;;;;;;;;;;4349019;33;20103;-61
2021/10/18 02:17:34;;;;;;;8.45;4.10;;;;;;;;;;4348946;33;20191;-60
2021/10/18 02:20:00;;;;;;;6.32;4.70;;;;;;;;;;4348879;33;20223;-59
2021/10/18 02:22:26;;;;;;;7.87;4.07;;;;;;;;;;4348838;32;20106;-59
2021/10/18 02:24:52;;;;;;;7.72;4.10;;;;;;;;;;4348912;33;20107;-60
2021/10/18 02:27:18;;;;;;;6.32;4.12;;;;;;;;;;4335136;32;20106;-60
2021/10/18 02:29:43;;;;;;;9.20;4.55;;;;;;;;;;4348946;33;20536;-60
2021/10/18 02:32:09;;;;;;;6.78;4.50;;;;;;;;;;4348867;33;20189;-59
2021/10/18 02:34:35;;;;;;;9.40;4.87;;;;;;;;;;4348954;32;20106;-60
2021/10/18 02:37:01;;;;;;;6.30;4.78;;;;;;;;;;4348776;33;20470;-58
2021/10/18 02:39:27;;;;;;;6.85;4.72;;;;;;;;;;4348897;32;20094;-58
2021/10/18 02:41:52;;;;;;;7.30;4.65;;;;;;;;;;4348768;33;20204;-60
2021/10/18 02:44:19;;;;;;;9.13;4.35;;;;;;;;;;4348950;32;20110;-60
2021/10/18 02:46:45;;;;;;;6.25;4.15;;;;;;;;;;4346447;33;20114;-61
2021/10/18 02:49:11;;;;;;;6.25;4.32;;;;;;;;;;4337552;33;20468;-59
2021/10/18 02:51:37;;;;;;;14.00;7.80;;;;;;;;;;4333887;33;20142;-59
2021/10/18 02:54:05;;;;;;;9.75;6.72;;;;;;;;;;4333833;33;20103;-65
2021/10/18 02:56:31;;;;;;;8.30;4.60;;;;;;;;;;4337985;33;20099;-62
2021/10/18 02:58:57;;;;;;;6.70;4.40;;;;;;;;;;4334621;33;20106;-61
2021/10/18 03:01:22;;;;;;;9.57;5.72;;;;;;;;;;4333731;33;20438;-61
2021/10/18 03:03:48;;;;;;;8.75;4.10;;;;;;;;;;4342071;33;20111;-59
2021/10/18 03:06:14;;;;;;;10.88;4.70;;;;;;;;;;4335134;33;20134;-59
2021/10/18 03:08:40;;;;;;;9.35;4.05;;;;;;;;;;4331848;33;20525;-60
2021/10/18 03:11:05;;;;;;;8.32;3.95;;;;;;;;;;4331516;33;20119;-60
2021/10/18 03:13:31;;;;;;;6.65;4.57;;;;;;;;;;4331870;33;20220;-60
2021/10/18 03:15:57;;;;;;;8.02;4.07;;;;;;;;;;4331477;33;20193;-60
2021/10/18 03:18:23;;;;;;;9.18;4.62;;;;;;;;;;4331389;33;20173;-59
2021/10/18 03:20:49;;;;;;;8.02;4.50;;;;;;;;;;4333386;33;20107;-59
2021/10/18 03:23:15;;;;;;;7.43;4.68;;;;;;;;;;4346653;32;20128;-60
2021/10/18 03:25:40;;;;;;;5.35;4.12;;;;;;;;;;4346330;33;20111;-60
2021/10/18 03:28:06;;;;;;;8.52;4.60;;;;;;;;;;4346732;32;20205;-60
2021/10/18 03:30:32;;;;;;;10.02;4.75;;;;;;;;;;4346529;33;20231;-60
2021/10/18 03:32:58;;;;;;;7.00;5.07;;;;;;;;;;4346224;32;20204;-61
2021/10/18 03:35:24;;;;;;;4.68;4.12;;;;;;;;;;4347733;33;20122;-58
2021/10/18 03:37:50;;;;;;;9.45;5.10;;;;;;;;;;4348209;32;20506;-60
2021/10/18 03:40:16;;;;;;;8.02;4.37;;;;;;;;;;4348191;33;20133;-60
2021/10/18 03:42:41;;;;;;;6.03;4.25;;;;;;;;;;4348123;32;20521;-60
2021/10/18 03:45:08;;;;;;;7.35;4.28;;;;;;;;;;4348090;33;20138;-60
2021/10/18 03:47:34;;;;;;;6.90;4.28;;;;;;;;;;4348260;32;20113;-60
2021/10/18 03:50:00;;;;;;;4.50;3.70;;;;;;;;;;4348489;33;20106;-60
2021/10/18 03:52:26;;;;;;;7.78;4.28;;;;;;;;;;4348196;32;20624;-59
2021/10/18 03:54:52;;;;;;;6.72;4.25;;;;;;;;;;4348099;33;20094;-59
2021/10/18 03:57:18;;;;;;;7.55;4.05;;;;;;;;;;4348036;32;20196;-60
2021/10/18 03:59:44;;;;;;;8.63;4.37;;;;;;;;;;4348212;33;20098;-61
2021/10/18 04:02:10;;;;;;;9.50;4.60;;;;;;;;;;4348235;33;20129;-60
2021/10/18 04:04:36;;;;;;;6.45;4.15;;;;;;;;;;4348047;32;20490;-61
2021/10/18 04:07:02;;;;;;;9.35;4.25;;;;;;;;;;4348089;33;20106;-60
2021/10/18 04:09:28;;;;;;;11.27;4.30;;;;;;;;;;4347910;32;20149;-60
2021/10/18 04:11:54;;;;;;;8.60;4.05;;;;;;;;;;4347967;33;20126;-61
2021/10/18 04:14:20;;;;;;;7.35;4.32;;;;;;;;;;4347352;32;20115;-61
2021/10/18 04:16:46;;;;;;;7.55;4.50;;;;;;;;;;4347785;33;20544;-61
2021/10/18 04:19:12;;;;;;;10.10;4.28;;;;;;;;;;4347986;32;20410;-60
2021/10/18 04:21:37;;;;;;;9.80;4.37;;;;;;;;;;4347850;33;20525;-60
2021/10/18 04:24:04;;;;;;;9.27;4.43;;;;;;;;;;4347866;32;20667;-60
2021/10/18 04:26:29;;;;;;;8.93;5.40;;;;;;;;;;4347922;33;20114;-61
2021/10/18 04:28:55;;;;;;;9.50;4.50;;;;;;;;;;4347820;32;20207;-60
2021/10/18 04:31:22;;;;;;;7.87;4.50;;;;;;;;;;4347795;33;20208;-60
2021/10/18 04:33:48;;;;;;;6.70;4.60;;;;;;;;;;4347706;32;20121;-61
2021/10/18 04:36:14;;;;;;;9.60;7.45;;;;;;;;;;4347779;33;20133;-60
2021/10/18 04:38:39;;;;;;;7.37;4.93;;;;;;;;;;4348163;32;20114;-60
2021/10/18 04:41:05;;;;;;;10.32;5.95;;;;;;;;;;4347654;33;20121;-60
2021/10/18 04:43:31;;;;;;;8.57;4.95;;;;;;;;;;4347879;32;20504;-61
2021/10/18 04:45:57;;;;;;;13.13;5.50;;;;;;;;;;4333893;33;20110;-60
2021/10/18 04:48:23;;;;;;;6.97;5.53;;;;;;;;;;4348020;32;20103;-60
2021/10/18 04:50:49;;;;;;;8.13;5.70;;;;;;;;;;4347568;33;20129;-60
2021/10/18 04:53:14;;;;;;;8.35;5.25;;;;;;;;;;4347984;32;20223;-61
2021/10/18 04:55:40;;;;;;;7.65;5.45;;;;;;;;;;4347609;33;20512;-61
2021/10/18 04:58:06;;;;;;;14.40;6.78;;;;;;;;;;4347724;32;20111;-60
2021/10/18 05:00:36;;;;;;;8.13;6.03;;;;;;;;;;4347579;33;20126;-60
2021/10/18 05:03:02;;;;;;;10.80;6.28;;;;;;;;;;4347516;32;20130;-60
2021/10/18 05:05:28;;;;;;;11.30;6.40;;;;;;;;;;4347349;33;20623;-60
2021/10/18 05:08:01;;;;;;;7.65;5.75;;;;;;;;;;4347331;32;20121;-61
2021/10/18 05:10:27;;;;;;;11.60;7.78;;;;;;;;;;4347121;33;20121;-62
2021/10/18 05:12:53;;;;;;;10.80;6.05;;;;;;;;;;4347313;32;20126;-61
2021/10/18 05:15:19;;;;;;;7.72;6.03;;;;;;;;;;4347408;33;20207;-61
2021/10/18 05:17:45;;;;;;;12.02;5.85;;;;;;;;;;4347134;32;20134;-61
2021/10/18 05:20:11;;;;;;;10.00;7.00;;;;;;;;;;4347135;33;20137;-62
2021/10/18 05:22:37;;;;;;;8.77;5.90;;;;;;;;;;4347076;32;20110;-60
2021/10/18 05:25:03;;;;;;;8.93;5.53;;;;;;;;;;4347323;33;20644;-61
2021/10/18 05:27:28;;;;;;;10.88;5.80;;;;;;;;;;4348945;32;20519;-61
2021/10/18 05:29:54;;;;;;;12.95;6.00;;;;;;;;;;4349216;33;20110;-61
2021/10/18 05:32:20;;;;;;;10.23;6.15;;;;;;;;;;4349210;32;20186;-61
2021/10/18 05:34:46;;;;;;;9.88;6.37;;;;;;;;;;4349337;33;20112;-61
2021/10/18 05:37:12;;;;;;;15.32;6.10;;;;;;;;;;4349248;33;20529;-61
2021/10/18 05:39:38;;;;;;;9.18;5.65;;;;;;;;;;4349455;33;20521;-61
2021/10/18 05:42:03;;;;;;;13.90;6.60;;;;;;;;;;4349294;33;20137;-61
